Milton, FL

8:54 PM CDT on August 03, 2015 (GMT -0500)
ECG Southridge Rd. | | Change Station
CLOSE
Current Station
Personal Weather Station
Location: Milton, FL
Elevation: 194 ft
Nearby Weather Stations

Elev 194 ft 30.79 °N, 87.07 °W | Updated 9 seconds ago

Scattered Clouds
Scattered Clouds
80.4 °F
Feels Like 86 °F
N
0.0
Wind Variable Wind from SE
Gusts 0.0 mph

Today
High -- | Low -- °F
--% Chance of Precip.
Yesterday
High -- | Low -- °F
Precip. -- in
6:06 AM 7:41 PM
Waning Gibbous, 82% visible
Pressure 29.85 in
Visibility 10.0 miles
Clouds Few 5500 ft
Scattered Clouds 25000 ft
Heat Index 86 °F
Dew Point 76 °F
Humidity 87%
Rainfall 0.00 in
Snow Depth Not available.
UV 0.0 out of 12
Pollen 3.90 out of 12
Air Quality Not available.
Flu Activity Not available.
METAR KNDZ 040056Z 27003KT 10SM FEW055 SCT250 31/23 A2989 RMK AO2 SLP107 T03060228 $

More Conditions Fewer Conditions

Pressure 29.85 in
Visibility 10.0 miles
Clouds Few 5500 ft
Scattered Clouds 25000 ft
Heat Index 86 °F
Dew Point 76 °F
Humidity 87%
Rainfall 0.00 in
Snow Depth Not available.
UV 0.0 out of 12
Pollen 3.90 out of 12
Air Quality Not available.
Flu Activity Not available.
METAR KNDZ 040056Z 27003KT 10SM FEW055 SCT250 31/23 A2989 RMK AO2 SLP107 T03060228 $

More Conditions Fewer Conditions

10-Day Weather Forecast

×

Almanac

Astronomy

Aug. 03, 2015 Rise Set
Actual Time
Civil Twilight
Nautical Twilight
Astronomical Twilight
Moon
Length of Visible Light
Length of Day
Tomorrow will be .
, % of the Moon is Illuminated

Today's Extremes

State Highs State Lows

Community

WunderPhotos

Upload Photos

1,843,820 photos uploaded!

WunderBlogs® & News

Nearby

Air Quality

  Air Quality AQ Index Pollutant
Not available.

Snow Depth

Station Depth Elevation

Earthquake Activity

City Distance Mag. Time & Date
Minimum magnitude displayed is 2.5.

Coastal Water Temperatures

Place Temperature

Stations

Nearby Weather Stations

Station Location Temp. Windchill Dew Point Humidity Wind Precip. Elev Updated Type